Time;durP1;ratioP1;P1;durP2;ratioP2;P2;SDS_P1;SDS_P2;PMS_P1;PMS_P2;Temp;Humidity;BMP_temperature;BMP_pressure;BME280_temperature;BME280_humidity;BME280_pressure;Samples;Min_cycle;Max_cycle;Signal;HPM_P1;HPM_P2
2022/11/13 00:00:16;;;;;;;2.93;1.23;;;5.30;99.90;;;;;;5095094;28;20440;-86
2022/11/13 00:02:44;;;;;;;2.40;0.53;;;5.30;99.90;;;;;;5094993;28;20464;-86
2022/11/13 00:05:12;;;;;;;2.80;1.27;;;5.30;99.90;;;;;;5095083;28;20954;-86
2022/11/13 00:07:39;;;;;;;7.53;1.53;;;5.30;99.90;;;;;;5094985;28;20429;-86
2022/11/13 00:10:06;;;;;;;2.27;1.27;;;5.20;99.90;;;;;;5094911;28;20970;-86
2022/11/13 00:12:33;;;;;;;2.90;1.23;;;5.20;99.90;;;;;;5094829;28;20485;-86
2022/11/13 00:15:00;;;;;;;3.03;1.20;;;5.10;99.90;;;;;;5094793;28;20619;-86
2022/11/13 00:17:28;;;;;;;1.80;0.97;;;5.10;99.90;;;;;;5094484;28;20479;-86
2022/11/13 00:19:56;;;;;;;2.30;1.53;;;5.00;99.90;;;;;;5094804;28;20441;-86
2022/11/13 00:22:23;;;;;;;1.23;0.93;;;5.00;99.90;;;;;;5094481;28;20461;-86
2022/11/13 00:24:50;;;;;;;0.63;0.63;;;5.00;99.90;;;;;;5093882;28;20798;-86
2022/11/13 00:27:16;;;;;;;1.03;1.00;;;4.90;99.90;;;;;;5094378;28;20448;-86
2022/11/13 00:29:44;;;;;;;1.00;0.70;;;4.90;99.90;;;;;;5094554;28;20440;-86
2022/11/13 00:32:10;;;;;;;2.87;0.80;;;4.90;99.90;;;;;;5094441;28;20456;-75
2022/11/13 00:34:37;;;;;;;0.93;0.90;;;4.90;99.90;;;;;;5094278;28;20457;-75
2022/11/13 00:37:05;;;;;;;0.60;0.60;;;4.90;99.90;;;;;;5094268;28;20459;-75
2022/11/13 00:39:32;;;;;;;1.50;0.73;;;4.90;99.90;;;;;;5094178;28;20943;-75
2022/11/13 00:41:59;;;;;;;0.73;0.50;;;4.90;99.90;;;;;;5094373;28;20444;-75
2022/11/13 00:44:26;;;;;;;0.93;0.67;;;4.90;99.90;;;;;;5094269;28;20509;-75
2022/11/13 00:46:52;;;;;;;3.20;1.37;;;4.90;99.90;;;;;;5093756;28;20947;-75
2022/11/13 00:49:19;;;;;;;1.23;0.80;;;4.80;99.90;;;;;;5093716;28;20951;-75
2022/11/13 00:51:46;;;;;;;1.30;1.20;;;4.80;99.90;;;;;;5094007;28;20471;-75
2022/11/13 00:54:14;;;;;;;1.67;0.87;;;4.80;99.90;;;;;;5093490;28;20507;-75
2022/11/13 00:56:41;;;;;;;5.20;0.90;;;4.80;99.90;;;;;;5093889;28;20459;-75
2022/11/13 00:59:07;;;;;;;0.77;0.50;;;4.80;99.90;;;;;;5093887;28;20453;-75
2022/11/13 01:01:34;;;;;;;0.43;0.43;;;4.80;99.90;;;;;;5093826;28;20448;-75
2022/11/13 01:04:01;;;;;;;1.03;0.67;;;4.80;99.90;;;;;;5093967;28;20540;-75
2022/11/13 01:06:28;;;;;;;0.67;0.67;;;4.80;99.90;;;;;;5093778;28;20436;-75
2022/11/13 01:08:57;;;;;;;1.43;1.00;;;4.70;99.90;;;;;;5093730;28;20456;-75
2022/11/13 01:11:27;;;;;;;1.37;0.80;;;4.70;99.90;;;;;;5093699;28;20452;-75
2022/11/13 01:13:55;;;;;;;0.37;0.33;;;4.70;99.90;;;;;;5093522;28;20480;-76
2022/11/13 01:16:25;;;;;;;0.87;0.70;;;4.70;99.90;;;;;;5093760;28;20451;-75
2022/11/13 01:18:54;;;;;;;0.60;0.60;;;4.70;99.90;;;;;;5093381;28;20487;-75
2022/11/13 01:21:23;;;;;;;0.50;0.50;;;4.60;99.90;;;;;;5093229;28;20982;-75
2022/11/13 01:23:50;;;;;;;0.90;0.87;;;4.60;99.90;;;;;;5093134;28;20464;-75
2022/11/13 01:26:19;;;;;;;1.77;0.70;;;4.50;99.90;;;;;;5093183;28;20498;-76
2022/11/13 01:28:48;;;;;;;2.13;1.03;;;4.60;99.90;;;;;;5093510;28;20452;-75
2022/11/13 01:31:17;;;;;;;9.03;2.13;;;4.50;99.90;;;;;;5093464;28;20453;-75
2022/11/13 01:33:44;;;;;;;4.00;1.20;;;4.50;99.90;;;;;;5093313;28;20496;-75
2022/11/13 01:36:13;;;;;;;0.97;0.97;;;4.40;99.90;;;;;;5096996;28;20449;-75
2022/11/13 01:38:40;;;;;;;1.93;0.70;;;4.40;99.90;;;;;;5097374;28;20978;-75
2022/11/13 01:41:08;;;;;;;1.77;1.07;;;4.30;99.90;;;;;;5097889;28;20456;-76
2022/11/13 01:43:37;;;;;;;0.40;0.40;;;4.30;99.90;;;;;;5097479;28;20468;-75
2022/11/13 01:46:17;;;;;;;0.50;0.50;;;4.20;99.90;;;;;;5097491;28;20444;-75
2022/11/13 01:48:46;;;;;;;1.00;1.00;;;4.20;99.90;;;;;;5097503;28;20489;-75
2022/11/13 01:51:18;;;;;;;0.70;0.50;;;4.20;99.90;;;;;;5097444;28;20786;-75
2022/11/13 01:53:47;;;;;;;2.33;0.53;;;4.20;99.90;;;;;;5097834;28;20488;-75
2022/11/13 01:56:15;;;;;;;1.20;1.10;;;4.20;99.90;;;;;;5097313;28;20450;-76
2022/11/13 01:58:46;;;;;;;0.50;0.37;;;4.10;99.90;;;;;;5097282;28;20455;-75
2022/11/13 02:01:14;;;;;;;0.50;0.50;;;4.10;99.90;;;;;;5097514;28;20425;-76
2022/11/13 02:03:41;;;;;;;0.67;0.67;;;4.10;99.90;;;;;;5097144;28;20460;-76
2022/11/13 02:06:08;;;;;;;1.33;1.00;;;4.10;99.90;;;;;;5097206;28;20463;-75
2022/11/13 02:08:35;;;;;;;1.73;1.03;;;4.10;99.90;;;;;;5097078;28;20445;-75
2022/11/13 02:11:02;;;;;;;6.73;0.73;;;4.00;99.90;;;;;;5097900;28;20445;-75
2022/11/13 02:13:28;;;;;;;0.47;0.47;;;4.00;99.90;;;;;;5096865;28;20492;-75
2022/11/13 02:15:56;;;;;;;0.50;0.50;;;4.10;99.90;;;;;;5096936;28;20456;-76
2022/11/13 02:18:27;;;;;;;0.90;0.90;;;4.00;99.90;;;;;;5096655;28;20485;-75
2022/11/13 02:21:05;;;;;;;0.67;0.67;;;4.00;99.90;;;;;;5096866;28;20449;-75
2022/11/13 02:23:41;;;;;;;0.73;0.73;;;4.00;99.90;;;;;;5096991;28;20959;-75
2022/11/13 02:26:10;;;;;;;1.07;0.77;;;4.00;99.90;;;;;;5096783;28;20432;-76
2022/11/13 02:28:37;;;;;;;4.43;1.47;;;4.00;99.90;;;;;;5096715;28;20448;-76
2022/11/13 02:31:08;;;;;;;0.50;0.50;;;4.00;99.90;;;;;;5096690;28;20448;-76
2022/11/13 02:33:35;;;;;;;0.70;0.70;;;4.00;99.90;;;;;;5096500;28;20491;-76
2022/11/13 02:36:03;;;;;;;1.07;0.50;;;4.00;99.90;;;;;;5096587;28;20556;-76
2022/11/13 02:38:30;;;;;;;0.90;0.90;;;4.00;99.90;;;;;;5096554;28;20812;-76
2022/11/13 02:40:57;;;;;;;0.40;0.40;;;4.00;99.90;;;;;;5097032;28;20452;-76
2022/11/13 02:43:25;;;;;;;1.13;1.03;;;4.00;99.90;;;;;;5096333;28;21038;-76
2022/11/13 02:45:52;;;;;;;5.30;1.10;;;3.90;99.90;;;;;;5095384;28;20947;-76
2022/11/13 02:48:19;;;;;;;1.17;0.90;;;3.90;99.90;;;;;;5095971;28;20448;-76
2022/11/13 02:50:46;;;;;;;0.47;0.47;;;3.90;99.90;;;;;;5096292;28;20456;-76
2022/11/13 02:53:12;;;;;;;1.13;0.67;;;3.90;99.90;;;;;;5095802;28;20496;-76
2022/11/13 02:55:39;;;;;;;0.40;0.40;;;3.90;99.90;;;;;;5096230;28;20440;-76
2022/11/13 02:58:06;;;;;;;0.30;0.30;;;3.80;99.90;;;;;;5095931;28;20950;-76
2022/11/13 03:00:34;;;;;;;0.60;0.47;;;3.80;99.90;;;;;;5096010;28;20452;-76
2022/11/13 03:03:01;;;;;;;0.40;0.40;;;3.80;99.90;;;;;;5095997;28;20471;-76
2022/11/13 03:05:28;;;;;;;0.30;0.30;;;3.70;99.90;;;;;;5096021;28;20447;-76
2022/11/13 03:07:55;;;;;;;2.00;0.53;;;3.70;99.90;;;;;;5096796;28;20456;-76
2022/11/13 03:10:21;;;;;;;0.40;0.40;;;3.70;99.90;;;;;;5096734;28;20440;-76
2022/11/13 03:12:48;;;;;;;0.80;0.80;;;3.60;99.90;;;;;;5095669;28;20831;-76
2022/11/13 03:15:15;;;;;;;0.80;0.70;;;3.60;99.90;;;;;;5095559;28;20940;-76
2022/11/13 03:17:43;;;;;;;0.97;0.97;;;3.60;99.90;;;;;;5095591;28;20850;-76
2022/11/13 03:20:10;;;;;;;0.50;0.50;;;3.60;99.90;;;;;;5095789;28;20453;-76
2022/11/13 03:22:37;;;;;;;0.60;0.60;;;3.50;99.90;;;;;;5095294;28;20839;-76
2022/11/13 03:25:04;;;;;;;0.30;0.30;;;3.50;99.90;;;;;;5095647;28;20440;-76
2022/11/13 03:27:32;;;;;;;1.70;0.80;;;3.50;99.90;;;;;;5095566;28;20445;-74
2022/11/13 03:29:59;;;;;;;0.70;0.70;;;3.50;99.90;;;;;;5095597;28;20448;-74
2022/11/13 03:32:26;;;;;;;0.70;0.70;;;3.40;99.90;;;;;;5095462;28;20468;-74
2022/11/13 03:34:54;;;;;;;0.47;0.47;;;3.40;99.90;;;;;;5095240;28;20495;-74
2022/11/13 03:37:21;;;;;;;1.43;1.33;;;3.40;99.90;;;;;;5095050;28;20445;-74
2022/11/13 03:39:47;;;;;;;1.03;0.43;;;3.40;99.90;;;;;;5095007;28;20449;-74
2022/11/13 03:42:14;;;;;;;0.53;0.40;;;3.40;99.90;;;;;;5095237;28;20440;-74
2022/11/13 03:44:41;;;;;;;0.60;0.60;;;3.40;99.90;;;;;;5095263;28;20445;-74
2022/11/13 03:47:07;;;;;;;0.63;0.60;;;3.30;99.90;;;;;;5095214;28;20448;-74
2022/11/13 03:49:34;;;;;;;0.70;0.70;;;3.30;99.90;;;;;;5095198;28;20448;-74
2022/11/13 03:52:02;;;;;;;0.97;0.57;;;3.30;99.90;;;;;;5095107;28;20451;-74
2022/11/13 03:54:29;;;;;;;1.70;0.50;;;3.20;99.90;;;;;;5094949;28;20479;-74
2022/11/13 03:56:56;;;;;;;0.90;0.57;;;3.30;99.90;;;;;;5095044;28;20444;-74
2022/11/13 03:59:23;;;;;;;0.40;0.40;;;3.30;99.90;;;;;;5094792;28;20455;-74
2022/11/13 04:01:49;;;;;;;2.37;0.70;;;3.20;99.90;;;;;;5094955;28;20441;-74
2022/11/13 04:04:16;;;;;;;1.67;0.63;;;3.20;99.90;;;;;;5094480;28;20464;-74
2022/11/13 04:06:43;;;;;;;0.70;0.70;;;3.20;99.90;;;;;;5094808;28;20547;-74
2022/11/13 04:09:11;;;;;;;0.50;0.40;;;3.20;99.90;;;;;;5094428;28;20448;-74
2022/11/13 04:11:38;;;;;;;0.30;0.30;;;3.20;99.90;;;;;;5094712;28;20514;-74
2022/11/13 04:14:04;;;;;;;0.60;0.47;;;3.20;99.90;;;;;;5094558;28;20503;-74
2022/11/13 04:16:31;;;;;;;0.40;0.40;;;3.10;99.90;;;;;;5094725;28;20471;-74
2022/11/13 04:18:58;;;;;;;0.40;0.33;;;3.20;99.90;;;;;;5094149;28;20998;-74
2022/11/13 04:21:26;;;;;;;0.50;0.50;;;3.20;99.90;;;;;;5094823;28;20460;-74
2022/11/13 04:23:53;;;;;;;0.80;0.80;;;3.10;99.90;;;;;;5094420;28;20461;-74
2022/11/13 04:26:21;;;;;;;0.97;0.97;;;3.20;99.90;;;;;;5094433;28;20448;-74
2022/11/13 04:28:48;;;;;;;1.13;0.57;;;3.10;99.90;;;;;;5094387;28;20519;-74
2022/11/13 04:31:14;;;;;;;0.30;0.30;;;3.10;99.90;;;;;;5094034;28;20813;-74
2022/11/13 04:33:41;;;;;;;0.50;0.50;;;3.10;99.90;;;;;;5093847;28;20533;-74
2022/11/13 04:36:08;;;;;;;0.40;0.40;;;3.10;99.90;;;;;;5094211;28;20448;-74
2022/11/13 04:38:35;;;;;;;0.40;0.30;;;3.10;99.90;;;;;;5094194;28;20448;-74
2022/11/13 04:43:48;;;;;;;0.40;0.40;;;3.10;99.90;;;;;;5094160;28;20948;-74
2022/11/13 04:46:14;;;;;;;0.30;0.30;;;3.10;99.90;;;;;;5094050;28;20448;-74
2022/11/13 04:48:41;;;;;;;1.20;0.50;;;3.10;99.90;;;;;;5093982;28;20975;-74
2022/11/13 04:51:08;;;;;;;0.30;0.30;;;3.10;99.90;;;;;;5094158;28;20452;-74
2022/11/13 04:53:35;;;;;;;4.73;0.70;;;3.10;99.90;;;;;;5093515;28;20999;-74
2022/11/13 04:56:01;;;;;;;0.30;0.30;;;3.10;99.90;;;;;;5093619;28;20936;-74
2022/11/13 04:58:28;;;;;;;0.60;0.57;;;3.10;99.90;;;;;;5093575;28;20971;-74
2022/11/13 05:00:56;;;;;;;0.30;0.30;;;3.10;99.90;;;;;;5093841;28;20436;-74
2022/11/13 05:03:23;;;;;;;0.60;0.47;;;3.10;99.90;;;;;;5093701;28;20472;-74
2022/11/13 05:05:50;;;;;;;0.40;0.40;;;3.00;99.90;;;;;;5093470;28;20966;-74
2022/11/13 05:08:16;;;;;;;0.30;0.30;;;3.00;99.90;;;;;;5093443;28;20453;-74
2022/11/13 05:10:43;;;;;;;0.40;0.30;;;3.00;99.90;;;;;;5093111;28;20449;-74
2022/11/13 05:13:10;;;;;;;0.40;0.40;;;3.00;99.90;;;;;;5093634;28;20464;-74
2022/11/13 05:15:37;;;;;;;2.73;0.90;;;3.00;99.90;;;;;;5093251;28;20845;-74
2022/11/13 05:18:05;;;;;;;0.50;0.50;;;2.90;99.90;;;;;;5093401;28;20503;-74
2022/11/13 05:20:32;;;;;;;0.30;0.30;;;2.90;99.90;;;;;;5093587;28;20445;-74
2022/11/13 05:22:59;;;;;;;0.50;0.40;;;2.90;99.90;;;;;;5093531;28;20478;-74
2022/11/13 05:25:25;;;;;;;0.47;0.47;;;2.90;99.90;;;;;;5093542;28;20440;-74
2022/11/13 05:27:52;;;;;;;0.37;0.30;;;2.80;99.90;;;;;;5093465;28;20463;-74
2022/11/13 05:30:19;;;;;;;0.50;0.50;;;2.70;99.90;;;;;;5093500;28;20454;-74
2022/11/13 05:32:46;;;;;;;0.40;0.30;;;2.70;99.90;;;;;;5093392;28;20468;-74
2022/11/13 05:35:14;;;;;;;0.60;0.60;;;2.70;99.90;;;;;;5093041;28;21017;-74
2022/11/13 05:37:41;;;;;;;0.87;0.80;;;2.70;99.90;;;;;;5093406;28;20464;-74
2022/11/13 05:40:09;;;;;;;0.50;0.50;;;2.70;99.90;;;;;;5093028;28;20445;-74
2022/11/13 05:42:35;;;;;;;0.40;0.40;;;2.70;99.90;;;;;;5093227;28;20472;-74
2022/11/13 05:45:02;;;;;;;0.30;0.30;;;2.70;99.90;;;;;;5093330;28;20451;-74
2022/11/13 05:47:29;;;;;;;0.80;0.80;;;2.70;99.90;;;;;;5093739;28;20448;-74
2022/11/13 05:49:56;;;;;;;0.80;0.80;;;2.70;99.90;;;;;;5092986;28;20944;-74
2022/11/13 05:52:24;;;;;;;0.50;0.50;;;2.70;99.90;;;;;;5092864;28;20947;-74
2022/11/13 05:54:51;;;;;;;0.40;0.40;;;2.70;99.90;;;;;;5093147;28;20485;-74
2022/11/13 05:57:17;;;;;;;0.37;0.30;;;2.70;99.90;;;;;;5092958;28;20939;-74
2022/11/13 05:59:44;;;;;;;0.40;0.33;;;2.70;99.90;;;;;;5092867;28;20445;-74
2022/11/13 06:02:11;;;;;;;0.30;0.30;;;2.80;99.90;;;;;;5092774;28;20820;-74
2022/11/13 06:04:38;;;;;;;0.50;0.50;;;2.70;99.90;;;;;;5092860;28;20936;-74
2022/11/13 06:07:04;;;;;;;0.50;0.50;;;2.80;99.90;;;;;;5093105;28;20459;-74
2022/11/13 06:09:32;;;;;;;0.97;0.43;;;2.80;99.90;;;;;;5093078;28;20444;-74
2022/11/13 06:11:59;;;;;;;0.50;0.50;;;2.90;99.90;;;;;;5093049;28;20445;-74
2022/11/13 06:14:26;;;;;;;0.50;0.50;;;2.90;99.90;;;;;;5092889;28;20488;-74
2022/11/13 06:16:53;;;;;;;0.30;0.20;;;3.00;99.90;;;;;;5092558;28;20451;-75
2022/11/13 06:19:19;;;;;;;0.40;0.40;;;3.00;99.90;;;;;;5093025;28;20433;-74
2022/11/13 06:21:46;;;;;;;0.40;0.40;;;3.00;99.90;;;;;;5095222;28;20449;-74
2022/11/13 06:24:13;;;;;;;3.50;0.87;;;3.00;99.90;;;;;;5096745;28;20468;-74
2022/11/13 06:26:41;;;;;;;0.80;0.50;;;3.00;99.90;;;;;;5096771;28;20437;-74
2022/11/13 06:29:11;;;;;;;0.57;0.40;;;3.00;99.90;;;;;;5096686;28;20444;-74
2022/11/13 06:31:38;;;;;;;0.30;0.30;;;3.00;99.90;;;;;;5096641;28;20449;-74
2022/11/13 06:34:06;;;;;;;0.43;0.40;;;3.00;99.90;;;;;;5096435;28;20488;-74
2022/11/13 06:36:35;;;;;;;0.70;0.67;;;3.00;99.90;;;;;;5096429;28;20837;-74
2022/11/13 06:39:05;;;;;;;0.80;0.60;;;3.00;99.90;;;;;;5096537;28;20444;-74
2022/11/13 06:41:32;;;;;;;0.47;0.47;;;3.00;99.90;;;;;;5096493;28;20447;-74
2022/11/13 06:44:00;;;;;;;0.70;0.70;;;2.90;99.90;;;;;;5096347;28;20471;-74
2022/11/13 06:46:28;;;;;;;0.73;0.70;;;2.90;99.90;;;;;;5096376;28;20803;-74
2022/11/13 06:48:55;;;;;;;0.73;0.73;;;2.90;99.90;;;;;;5096289;28;20460;-74
2022/11/13 06:51:26;;;;;;;0.30;0.30;;;3.00;99.90;;;;;;5096291;28;20460;-74
2022/11/13 06:53:53;;;;;;;0.30;0.30;;;3.00;99.90;;;;;;5096197;28;20495;-74
2022/11/13 06:56:21;;;;;;;0.60;0.50;;;3.00;99.90;;;;;;5095861;28;20456;-74
2022/11/13 06:58:48;;;;;;;0.80;0.73;;;3.00;99.90;;;;;;5096399;28;20452;-76
2022/11/13 07:01:18;;;;;;;0.57;0.57;;;3.00;99.90;;;;;;5095748;28;20444;-76
2022/11/13 07:03:45;;;;;;;0.63;0.57;;;3.00;99.90;;;;;;5095984;28;20464;-79
2022/11/13 07:06:13;;;;;;;3.80;0.73;;;3.00;99.90;;;;;;5095739;28;20958;-79
2022/11/13 07:08:40;;;;;;;0.70;0.60;;;3.00;99.90;;;;;;5096016;28;20445;-79
2022/11/13 07:11:09;;;;;;;1.23;1.07;;;2.90;99.90;;;;;;5095659;28;21001;-79
2022/11/13 07:13:37;;;;;;;1.37;1.27;;;3.00;99.90;;;;;;5095845;28;20487;-79
2022/11/13 07:16:06;;;;;;;2.90;1.27;;;3.00;99.90;;;;;;5095972;28;20508;-79
2022/11/13 07:18:34;;;;;;;0.60;0.60;;;3.00;99.90;;;;;;5095345;28;20610;-77
2022/11/13 07:21:05;;;;;;;0.33;0.33;;;3.00;99.90;;;;;;5096045;28;20445;-77
2022/11/13 07:23:32;;;;;;;0.30;0.30;;;3.00;99.90;;;;;;5095694;28;20975;-77
2022/11/13 07:25:59;;;;;;;0.70;0.70;;;3.00;99.90;;;;;;5095630;28;20436;-77
2022/11/13 07:28:26;;;;;;;0.40;0.40;;;3.00;99.90;;;;;;5095321;28;20951;-77
2022/11/13 07:30:53;;;;;;;0.60;0.60;;;3.10;99.90;;;;;;5095571;28;20444;-77
2022/11/13 07:33:19;;;;;;;0.60;0.60;;;3.10;99.90;;;;;;5094869;28;20477;-77
2022/11/13 07:35:47;;;;;;;0.50;0.50;;;3.10;99.90;;;;;;5095075;28;21014;-77
2022/11/13 07:38:14;;;;;;;0.40;0.37;;;3.20;99.90;;;;;;5095405;28;20448;-77
2022/11/13 07:40:41;;;;;;;0.40;0.40;;;3.20;99.90;;;;;;5095346;28;20455;-77
2022/11/13 07:43:08;;;;;;;0.50;0.50;;;3.20;99.90;;;;;;5095220;28;20844;-77
2022/11/13 07:45:35;;;;;;;0.40;0.30;;;3.20;99.90;;;;;;5094917;28;20444;-77
2022/11/13 07:48:03;;;;;;;0.40;0.40;;;3.30;99.90;;;;;;5094904;28;20939;-77
2022/11/13 07:50:32;;;;;;;0.37;0.37;;;3.30;99.90;;;;;;5095078;28;20448;-77
2022/11/13 07:53:02;;;;;;;1.60;0.50;;;3.30;99.90;;;;;;5094925;28;20464;-77
2022/11/13 07:55:29;;;;;;;0.60;0.60;;;3.30;99.90;;;;;;5095003;28;20469;-77
2022/11/13 07:57:56;;;;;;;0.30;0.30;;;3.40;99.90;;;;;;5094690;28;20962;-77
2022/11/13 08:00:23;;;;;;;0.87;0.47;;;3.50;99.90;;;;;;5094637;28;20936;-77
2022/11/13 08:02:50;;;;;;;0.40;0.33;;;3.50;99.90;;;;;;5094781;28;20464;-76
2022/11/13 08:05:17;;;;;;;3.80;0.80;;;3.60;99.90;;;;;;5095157;28;20460;-76
2022/11/13 08:07:47;;;;;;;0.50;0.47;;;3.70;99.90;;;;;;5094498;28;20441;-76
2022/11/13 08:10:15;;;;;;;0.40;0.33;;;3.80;99.90;;;;;;5094455;28;20959;-76
2022/11/13 08:12:42;;;;;;;0.40;0.40;;;3.90;99.90;;;;;;5094661;28;20469;-77
2022/11/13 08:15:10;;;;;;;2.00;0.83;;;4.00;99.90;;;;;;5094276;28;20816;-77
2022/11/13 08:17:37;;;;;;;1.60;1.43;;;4.20;99.90;;;;;;5094385;28;20477;-79
2022/11/13 08:20:05;;;;;;;2.83;1.33;;;4.40;99.90;;;;;;5094291;28;20471;-79
2022/11/13 08:22:32;;;;;;;0.87;0.80;;;4.60;99.90;;;;;;5095437;28;20473;-85
2022/11/13 08:24:58;;;;;;;0.40;0.40;;;4.80;99.90;;;;;;5097126;28;20451;-85
2022/11/13 08:27:26;;;;;;;0.70;0.50;;;5.00;99.90;;;;;;5098027;28;20441;-84
2022/11/13 08:29:53;;;;;;;0.40;0.30;;;5.30;99.90;;;;;;5097758;28;20939;-86
2022/11/13 08:32:21;;;;;;;1.63;0.70;;;5.60;99.90;;;;;;5097682;28;20448;-85
2022/11/13 08:34:48;;;;;;;2.93;0.90;;;6.00;99.90;;;;;;5097303;28;20480;-85
2022/11/13 08:37:14;;;;;;;1.57;0.93;;;6.70;99.90;;;;;;5096670;28;20459;-75
2022/11/13 08:39:41;;;;;;;1.70;0.47;;;7.60;99.90;;;;;;5093904;28;20448;-75
2022/11/13 08:42:08;;;;;;;0.87;0.87;;;8.80;99.90;;;;;;5094406;28;20451;-75
2022/11/13 08:44:36;;;;;;;1.37;0.70;;;10.00;99.90;;;;;;5092927;28;20817;-75
2022/11/13 08:47:03;;;;;;;1.23;0.77;;;11.10;99.90;;;;;;5094122;28;20449;-76
2022/11/13 08:49:30;;;;;;;4.57;1.20;;;11.90;99.90;;;;;;5094265;28;20437;-76
2022/11/13 08:51:57;;;;;;;3.10;1.27;;;12.70;99.90;;;;;;5093699;28;20456;-75
2022/11/13 08:54:24;;;;;;;0.70;0.70;;;13.70;99.90;;;;;;5093508;28;20998;-76
2022/11/13 08:56:50;;;;;;;0.63;0.60;;;14.60;99.90;;;;;;5093612;28;20944;-75
2022/11/13 08:59:17;;;;;;;1.57;0.87;;;15.70;99.90;;;;;;5093815;28;20445;-76
2022/11/13 09:01:45;;;;;;;3.37;1.70;;;16.70;99.90;;;;;;5093881;28;20437;-75
2022/11/13 09:04:12;;;;;;;1.53;1.00;;;17.50;99.90;;;;;;5093728;28;20469;-75
2022/11/13 09:06:39;;;;;;;2.23;1.00;;;18.10;99.90;;;;;;5093787;28;20444;-76
2022/11/13 09:09:06;;;;;;;1.60;1.43;;;18.50;99.90;;;;;;5093473;28;20449;-75
2022/11/13 09:11:33;;;;;;;1.80;1.70;;;18.90;99.60;;;;;;5093439;28;20794;-76
2022/11/13 09:14:01;;;;;;;1.77;1.67;;;19.10;97.90;;;;;;5093665;28;20475;-76
2022/11/13 09:16:27;;;;;;;1.93;1.30;;;19.10;96.60;;;;;;5093550;28;20483;-76
2022/11/13 09:18:55;;;;;;;2.70;2.13;;;19.10;95.30;;;;;;5093445;28;20483;-76
2022/11/13 09:21:22;;;;;;;2.57;1.70;;;19.00;94.70;;;;;;5093635;28;20448;-75
2022/11/13 09:23:49;;;;;;;2.53;2.00;;;18.90;94.50;;;;;;5093568;28;20468;-75
2022/11/13 09:26:16;;;;;;;1.50;1.40;;;18.50;94.40;;;;;;5093554;28;20441;-75
2022/11/13 09:28:43;;;;;;;2.90;1.50;;;17.80;95.20;;;;;;5093535;28;20539;-75
2022/11/13 09:31:10;;;;;;;2.40;1.77;;;17.10;95.70;;;;;;5093563;28;20460;-76
2022/11/13 09:33:36;;;;;;;2.93;1.87;;;16.50;96.40;;;;;;5093100;28;20991;-76
2022/11/13 09:36:10;;;;;;;2.60;2.00;;;16.10;96.90;;;;;;5093322;28;20484;-75
2022/11/13 09:38:37;;;;;;;3.43;1.87;;;16.10;97.90;;;;;;5093456;28;20428;-76
2022/11/13 09:41:08;;;;;;;3.33;1.70;;;16.30;97.90;;;;;;5093105;28;20452;-75
2022/11/13 09:43:39;;;;;;;2.00;1.90;;;16.80;96.90;;;;;;5093328;28;20471;-76
2022/11/13 09:46:11;;;;;;;2.63;1.70;;;17.30;96.50;;;;;;5093401;28;20470;-76
2022/11/13 09:48:42;;;;;;;3.97;2.37;;;17.30;96.10;;;;;;5093390;28;20439;-76
2022/11/13 09:51:15;;;;;;;2.00;1.80;;;16.70;96.00;;;;;;5094095;28;20433;-76
2022/11/13 09:53:42;;;;;;;1.53;1.00;;;15.70;97.10;;;;;;5093286;28;20468;-77
2022/11/13 09:56:22;;;;;;;2.07;1.30;;;14.70;97.80;;;;;;5094774;28;20821;-76
2022/11/13 09:58:54;;;;;;;2.63;1.70;;;13.80;98.90;;;;;;5097479;28;20428;-80
2022/11/13 10:01:27;;;;;;;3.07;1.47;;;13.00;99.60;;;;;;5097192;28;20425;-80
2022/11/13 10:04:00;;;;;;;1.87;0.97;;;12.10;99.90;;;;;;5097115;28;20547;-80
2022/11/13 10:06:43;;;;;;;2.57;1.50;;;11.60;99.90;;;;;;5097199;28;20429;-80
2022/11/13 10:09:19;;;;;;;0.83;0.83;;;11.40;99.90;;;;;;5096784;28;20908;-80
2022/11/13 10:11:51;;;;;;;1.67;0.90;;;11.20;99.90;;;;;;5096805;28;20876;-80
2022/11/13 10:14:21;;;;;;;4.13;1.00;;;11.00;99.90;;;;;;5097231;28;20465;-79
2022/11/13 10:16:51;;;;;;;1.30;1.20;;;10.90;99.90;;;;;;5096944;28;20490;-79
2022/11/13 10:19:25;;;;;;;0.60;0.50;;;10.80;99.90;;;;;;5096716;28;20903;-80
2022/11/13 10:21:59;;;;;;;0.50;0.50;;;10.70;99.90;;;;;;5097268;28;20436;-80
2022/11/13 10:24:30;;;;;;;1.27;1.10;;;10.70;99.90;;;;;;5096819;28;20475;-80
2022/11/13 10:26:59;;;;;;;0.70;0.70;;;10.70;99.90;;;;;;5096867;28;20432;-80
2022/11/13 10:29:29;;;;;;;1.50;1.10;;;10.60;99.90;;;;;;5096776;28;20448;-80
2022/11/13 10:31:58;;;;;;;4.83;0.97;;;10.70;99.90;;;;;;5096408;28;20992;-80
2022/11/13 10:34:25;;;;;;;0.70;0.60;;;10.60;99.90;;;;;;5096262;28;20888;-80
2022/11/13 10:37:07;;;;;;;1.50;0.90;;;10.60;99.90;;;;;;5096551;28;20544;-81
2022/11/13 10:39:41;;;;;;;0.73;0.50;;;10.60;99.90;;;;;;5096655;28;20452;-80
2022/11/13 10:42:21;;;;;;;2.00;1.13;;;10.60;99.90;;;;;;5096466;28;20435;-80
2022/11/13 10:44:54;;;;;;;1.00;0.83;;;10.60;99.90;;;;;;5096494;28;20429;-80
2022/11/13 10:47:23;;;;;;;2.07;1.20;;;10.60;99.90;;;;;;5096473;28;20429;-80
2022/11/13 10:49:50;;;;;;;1.47;1.13;;;10.60;99.90;;;;;;5096621;28;20440;-80
2022/11/13 10:52:21;;;;;;;2.10;0.97;;;10.70;99.90;;;;;;5096201;28;20448;-79
2022/11/13 10:54:49;;;;;;;1.00;0.70;;;10.70;99.90;;;;;;5096354;28;20433;-79
2022/11/13 10:57:27;;;;;;;0.70;0.70;;;10.70;99.90;;;;;;5096207;28;20857;-79
2022/11/13 10:59:55;;;;;;;1.47;1.00;;;10.80;99.90;;;;;;5095991;28;20428;-85
2022/11/13 11:02:24;;;;;;;3.07;1.03;;;10.80;99.90;;;;;;5098717;28;20440;-85
2022/11/13 11:05:02;;;;;;;1.10;0.60;;;10.80;99.90;;;;;;5096218;28;20444;-85
2022/11/13 11:07:38;;;;;;;1.27;0.80;;;10.80;99.90;;;;;;5095243;28;20421;-85
2022/11/13 11:10:18;;;;;;;1.50;1.00;;;10.80;99.90;;;;;;5096265;28;20436;-85
2022/11/13 11:12:52;;;;;;;1.70;0.73;;;10.80;99.90;;;;;;5096032;28;20489;-85
2022/11/13 11:15:23;;;;;;;0.77;0.67;;;10.70;99.90;;;;;;5096027;28;20803;-85
2022/11/13 11:17:53;;;;;;;3.43;1.30;;;10.70;99.90;;;;;;5096018;28;20476;-85
2022/11/13 11:20:25;;;;;;;0.63;0.63;;;10.80;99.90;;;;;;5096006;28;20494;-86
2022/11/13 11:22:58;;;;;;;1.03;1.00;;;10.80;99.90;;;;;;5095823;28;20467;-85
2022/11/13 11:25:34;;;;;;;0.93;0.87;;;10.70;99.90;;;;;;5095993;28;20479;-85
2022/11/13 11:28:05;;;;;;;1.33;1.00;;;10.80;99.90;;;;;;5095865;28;20438;-86
2022/11/13 11:30:39;;;;;;;1.13;0.90;;;10.80;99.90;;;;;;5095825;28;20433;-85
2022/11/13 11:33:15;;;;;;;0.97;0.77;;;10.90;99.90;;;;;;5095351;28;20986;-85
2022/11/13 11:35:45;;;;;;;3.53;1.30;;;10.90;99.90;;;;;;5095348;28;20469;-85
2022/11/13 11:38:19;;;;;;;0.97;0.80;;;10.90;99.90;;;;;;5095754;28;20421;-85
2022/11/13 11:40:50;;;;;;;1.13;0.90;;;10.80;99.90;;;;;;5095550;28;20477;-85
2022/11/13 11:43:22;;;;;;;2.00;1.17;;;10.80;99.90;;;;;;5095454;28;20468;-85
2022/11/13 11:45:49;;;;;;;0.77;0.77;;;10.80;99.90;;;;;;5095315;28;20441;-85
2022/11/13 11:48:18;;;;;;;1.50;0.90;;;10.80;99.90;;;;;;5094981;28;20477;-86
2022/11/13 11:50:53;;;;;;;1.30;0.80;;;10.70;99.90;;;;;;5094995;28;20448;-85
2022/11/13 11:53:34;;;;;;;0.90;0.90;;;10.60;99.90;;;;;;5095543;28;20500;-85
2022/11/13 11:56:15;;;;;;;1.23;1.13;;;10.60;99.90;;;;;;5094912;28;20969;-86
2022/11/13 11:59:21;;;;;;;0.50;0.30;;;10.60;99.90;;;;;;5094863;28;20920;-85
2022/11/13 12:02:15;;;;;;;0.80;0.80;;;10.50;99.90;;;;;;5095188;28;20829;-85
2022/11/13 12:04:54;;;;;;;2.00;1.03;;;10.40;99.90;;;;;;5095120;28;20424;-86
2022/11/13 12:07:32;;;;;;;1.90;0.60;;;10.60;99.90;;;;;;5094964;28;20425;-86
2022/11/13 12:10:09;;;;;;;1.53;1.43;;;10.50;99.90;;;;;;5094906;28;20810;-86
2022/11/13 12:12:56;;;;;;;1.27;0.70;;;10.50;99.90;;;;;;5094828;28;20464;-85
2022/11/13 12:15:29;;;;;;;0.70;0.70;;;10.50;99.90;;;;;;5094786;28;20428;-86
2022/11/13 12:18:10;;;;;;;0.80;0.80;;;10.50;99.90;;;;;;5094719;28;20476;-86
2022/11/13 12:20:44;;;;;;;1.70;1.00;;;10.40;99.90;;;;;;5094846;28;20443;-88
2022/11/13 12:23:24;;;;;;;1.27;0.80;;;10.40;99.90;;;;;;5094743;28;20833;-86
2022/11/13 12:26:01;;;;;;;1.43;1.00;;;10.40;99.90;;;;;;5094696;28;20443;-85
2022/11/13 12:28:35;;;;;;;0.73;0.73;;;10.40;99.90;;;;;;5094860;28;20440;-85
2022/11/13 12:31:09;;;;;;;1.47;0.80;;;10.40;99.90;;;;;;5094660;28;20436;-85
2022/11/13 12:33:45;;;;;;;0.70;0.70;;;10.40;99.90;;;;;;5094752;28;20478;-82
2022/11/13 12:36:13;;;;;;;2.40;1.23;;;10.30;99.90;;;;;;5094558;28;20495;-84
2022/11/13 12:38:48;;;;;;;0.90;0.90;;;10.20;99.90;;;;;;5094298;28;20459;-85
2022/11/13 12:41:28;;;;;;;1.70;1.60;;;10.20;99.90;;;;;;5094025;28;20436;-85
2022/11/13 12:44:17;;;;;;;0.60;0.60;;;10.30;99.90;;;;;;5094220;28;20467;-85
2022/11/13 12:46:44;;;;;;;0.70;0.57;;;10.30;99.90;;;;;;5094220;28;20425;-84
2022/11/13 12:49:25;;;;;;;1.80;0.60;;;10.40;99.90;;;;;;5094178;28;20440;-84
2022/11/13 12:51:55;;;;;;;0.90;0.40;;;10.40;99.90;;;;;;5094450;28;20817;-84
2022/11/13 12:54:29;;;;;;;1.30;0.70;;;10.40;99.90;;;;;;5094016;28;20812;-85
2022/11/13 12:57:26;;;;;;;0.60;0.60;;;10.40;99.90;;;;;;5093941;28;20467;-80
2022/11/13 12:59:54;;;;;;;0.70;0.70;;;10.50;99.90;;;;;;5047710;28;20456;-84
2022/11/13 13:02:38;;;;;;;0.87;0.70;;;10.40;99.90;;;;;;5093954;28;20446;-84
2022/11/13 13:05:27;;;;;;;0.90;0.50;;;10.40;99.90;;;;;;5093957;28;20424;-85